Welcome, Texas
Current Conditions -  °F | °C
As of 9:15 PM on Wednesday 22 Oct 2014 (Local Time) from K11R Reporting Station
Clear Clear  
Wind Chill: 70°   Ceiling: Unl
Heat Index: 70°   Visibility: 10mi
Dew Point: 60°   Wind: 5mph
Humidity: 69%   Direction: 80°E
Pressure: 30.1"   Gusts: NA
Location:  29.9936°N, 96.5297°W
Report Text: K11R 230215Z AUTO 08004KT 10SM CLR 21/15 A3010 RMK AO2 T02130153
Loading
Personal Weather Stations






























Interactive Weather Map
Tropical Storm Tracking
New forecast layout! Learn more

10-Day Weather Forecast

Advertisements
Track Severe Weather on mobile